Time;durP1;ratioP1;P1;durP2;ratioP2;P2;SDS_P1;SDS_P2;PMS_P1;PMS_P2;Temp;Humidity;BMP_temperature;BMP_pressure;BME280_temperature;BME280_humidity;BME280_pressure;Samples;Min_cycle;Max_cycle;Signal;HPM_P1;HPM_P2
2021/03/10 00:02:19;;;;;;;36.35;17.98;;;-2.80;99.90;;;;;;5051412;28;20021;-78
2021/03/10 00:04:44;;;;;;;31.20;17.45;;;-2.80;99.90;;;;;;5050641;28;20098;-78
2021/03/10 00:07:10;;;;;;;31.95;17.42;;;-2.80;99.90;;;;;;5033554;28;20026;-78
2021/03/10 00:09:35;;;;;;;32.92;16.67;;;-2.80;99.90;;;;;;5050939;28;20532;-78
2021/03/10 00:12:01;;;;;;;36.83;18.13;;;-2.90;99.90;;;;;;5051032;28;20620;-78
2021/03/10 00:14:26;;;;;;;36.20;16.90;;;-2.90;99.90;;;;;;5050350;28;20754;-78
2021/03/10 00:16:52;;;;;;;31.33;16.27;;;-2.90;99.90;;;;;;5051411;28;20436;-78
2021/03/10 00:19:17;;;;;;;35.92;18.67;;;-2.90;99.90;;;;;;5033548;28;20033;-78
2021/03/10 00:21:43;;;;;;;31.75;16.90;;;-2.90;99.90;;;;;;5055297;28;20078;-78
2021/03/10 00:24:09;;;;;;;31.60;17.75;;;-3.00;99.90;;;;;;5054700;28;20029;-78
2021/03/10 00:26:34;;;;;;;37.58;17.42;;;-3.00;99.90;;;;;;5037333;28;20017;-78
2021/03/10 00:29:00;;;;;;;32.40;16.45;;;-3.00;99.90;;;;;;5036639;28;20074;-78
2021/03/10 00:31:25;;;;;;;38.05;16.42;;;-3.10;99.90;;;;;;5054864;28;20043;-78
2021/03/10 00:33:51;;;;;;;29.02;16.13;;;-3.10;99.90;;;;;;5054833;28;20032;-78
2021/03/10 00:36:16;;;;;;;29.48;14.73;;;-3.20;99.90;;;;;;5054860;28;20029;-78
2021/03/10 00:38:42;;;;;;;29.77;16.02;;;-3.20;99.90;;;;;;5054341;28;20079;-78
2021/03/10 00:41:08;;;;;;;32.80;16.45;;;-3.20;99.90;;;;;;5054697;28;20595;-78
2021/03/10 00:43:33;;;;;;;26.27;14.77;;;-3.30;99.90;;;;;;5036374;28;20065;-78
2021/03/10 00:45:59;;;;;;;32.53;16.77;;;-3.40;99.90;;;;;;5036468;28;20021;-77
2021/03/10 00:48:24;;;;;;;29.17;15.63;;;-3.30;99.90;;;;;;5054646;28;20025;-78
2021/03/10 00:50:50;;;;;;;34.28;16.52;;;-3.30;99.90;;;;;;5054659;28;20025;-78
2021/03/10 00:53:15;;;;;;;28.83;15.27;;;-3.40;99.90;;;;;;5054660;28;20028;-79
2021/03/10 00:55:41;;;;;;;29.95;15.65;;;-3.40;99.90;;;;;;5035984;28;20056;-78
2021/03/10 00:58:06;;;;;;;29.85;15.52;;;-3.40;99.90;;;;;;5053979;28;20039;-78
2021/03/10 01:00:32;;;;;;;36.35;15.10;;;-3.40;99.90;;;;;;5054531;28;20082;-78
2021/03/10 01:02:57;;;;;;;29.73;17.05;;;-3.40;99.90;;;;;;5036499;28;20025;-78
2021/03/10 01:05:23;;;;;;;29.08;15.30;;;-3.40;99.90;;;;;;5053663;28;20029;-78
2021/03/10 01:07:49;;;;;;;35.85;17.02;;;-3.30;99.90;;;;;;5054442;28;20068;-78
2021/03/10 01:10:14;;;;;;;24.45;14.65;;;-3.30;99.90;;;;;;5054414;28;20056;-78
2021/03/10 01:12:40;;;;;;;31.73;15.10;;;-3.40;99.90;;;;;;5036297;28;20562;-78
2021/03/10 01:15:12;;;;;;;34.05;16.08;;;-3.40;99.90;;;;;;5053141;28;20051;-78
2021/03/10 01:17:38;;;;;;;29.05;14.68;;;-3.40;99.90;;;;;;5054310;28;20602;-78
2021/03/10 01:20:10;;;;;;;29.73;15.57;;;-3.40;99.90;;;;;;5054490;28;20029;-78
2021/03/10 01:22:36;;;;;;;28.27;14.18;;;-3.50;99.90;;;;;;5054110;28;20028;-78
2021/03/10 01:25:03;;;;;;;30.48;15.85;;;-3.50;99.90;;;;;;5034972;28;20032;-78
2021/03/10 01:27:28;;;;;;;40.15;18.15;;;-3.60;99.90;;;;;;5053871;28;20156;-78
2021/03/10 01:29:54;;;;;;;51.80;22.20;;;-3.50;99.90;;;;;;5053591;28;20113;-78
2021/03/10 01:32:19;;;;;;;42.80;19.42;;;-3.30;99.90;;;;;;5036081;28;20021;-79
2021/03/10 01:34:45;;;;;;;36.50;18.58;;;-3.30;99.90;;;;;;5053030;28;20039;-78
2021/03/10 01:37:10;;;;;;;32.08;17.17;;;-3.30;99.90;;;;;;5053964;28;20033;-78
2021/03/10 01:39:36;;;;;;;32.22;17.00;;;-3.40;99.90;;;;;;5035842;28;20370;-78
2021/03/10 01:42:02;;;;;;;36.45;16.83;;;-3.40;99.90;;;;;;5035712;28;20037;-78
2021/03/10 01:44:29;;;;;;;25.48;14.48;;;-3.50;99.90;;;;;;5052715;28;20048;-78
2021/03/10 01:46:55;;;;;;;32.55;15.98;;;-3.50;99.90;;;;;;5035608;28;20029;-78
2021/03/10 01:49:22;;;;;;;27.15;15.50;;;-3.60;99.90;;;;;;5053738;28;20401;-78
2021/03/10 01:51:47;;;;;;;26.38;15.55;;;-3.60;99.90;;;;;;5053744;28;20477;-78
2021/03/10 01:54:14;;;;;;;26.13;15.57;;;-3.70;99.90;;;;;;5052568;28;20060;-78
2021/03/10 01:56:40;;;;;;;33.97;16.55;;;-3.70;99.90;;;;;;5035580;28;20488;-78
2021/03/10 01:59:06;;;;;;;37.22;17.50;;;-3.60;99.90;;;;;;5052355;28;20056;-78
2021/03/10 02:01:31;;;;;;;34.92;17.10;;;-3.50;99.90;;;;;;5053387;28;20444;-78
2021/03/10 02:03:57;;;;;;;42.58;17.63;;;-3.40;99.90;;;;;;5052333;28;20033;-78
2021/03/10 02:06:54;;;;;;;36.45;18.52;;;-3.30;99.90;;;;;;5052780;28;20172;-78
2021/03/10 02:09:40;;;;;;;30.73;18.75;;;-3.10;99.90;;;;;;5053306;28;20032;-78
2021/03/10 02:12:25;;;;;;;32.50;19.38;;;-2.90;99.90;;;;;;5053375;28;20025;-78
2021/03/10 02:15:12;;;;;;;32.17;18.10;;;-2.80;99.90;;;;;;5051621;28;20379;-78
2021/03/10 02:17:44;;;;;;;30.98;18.55;;;-2.60;99.90;;;;;;5053174;28;20054;-78
2021/03/10 02:20:22;;;;;;;32.95;18.58;;;-2.50;99.90;;;;;;5052940;28;20025;-78
2021/03/10 02:23:22;;;;;;;32.65;18.00;;;-2.30;99.90;;;;;;5053067;28;20538;-78
2021/03/10 02:26:04;;;;;;;31.65;17.48;;;-2.20;99.90;;;;;;5052394;28;20564;-78
2021/03/10 02:28:31;;;;;;;33.88;18.73;;;-2.00;99.90;;;;;;5052494;28;20032;-78
2021/03/10 02:31:00;;;;;;;34.50;18.60;;;-1.90;99.90;;;;;;5035042;28;20078;-78
2021/03/10 02:33:27;;;;;;;38.50;19.90;;;-1.80;99.90;;;;;;5034987;28;20112;-78
2021/03/10 02:36:02;;;;;;;36.15;19.77;;;-1.80;99.90;;;;;;5051591;28;20025;-78
2021/03/10 02:38:29;;;;;;;31.55;18.15;;;-1.70;99.90;;;;;;5034969;28;20074;-79
2021/03/10 02:40:55;;;;;;;33.85;18.33;;;-1.60;99.90;;;;;;5052490;28;20029;-78
2021/03/10 02:43:22;;;;;;;28.45;17.55;;;-1.50;99.90;;;;;;5051326;28;20035;-78
2021/03/10 02:45:50;;;;;;;31.70;18.92;;;-1.40;99.90;;;;;;5034250;28;20485;-79
2021/03/10 02:48:17;;;;;;;35.97;18.42;;;-1.40;99.90;;;;;;5034881;28;20021;-78
2021/03/10 02:50:44;;;;;;;44.55;19.98;;;-1.30;99.90;;;;;;5034261;28;20038;-78
2021/03/10 02:53:10;;;;;;;27.98;18.58;;;-1.20;99.90;;;;;;5034362;28;20033;-78
2021/03/10 02:55:38;;;;;;;30.63;17.80;;;-1.20;99.90;;;;;;5051598;28;20044;-78
2021/03/10 02:58:05;;;;;;;33.85;17.90;;;-1.10;99.90;;;;;;5051908;28;20021;-79
2021/03/10 03:00:30;;;;;;;42.40;17.48;;;-1.10;99.90;;;;;;5052270;28;20025;-78
2021/03/10 03:02:56;;;;;;;27.70;16.98;;;-1.00;99.90;;;;;;5052217;28;20036;-79
2021/03/10 03:05:21;;;;;;;30.60;18.23;;;-1.00;99.90;;;;;;5032846;28;20229;-78
2021/03/10 03:07:48;;;;;;;30.58;17.73;;;-1.00;99.90;;;;;;5033345;28;20021;-79
2021/03/10 03:10:19;;;;;;;34.88;16.45;;;-0.90;99.90;;;;;;5051461;28;20055;-79
2021/03/10 03:12:46;;;;;;;25.30;16.33;;;-0.90;99.90;;;;;;5034343;28;20035;-79
2021/03/10 03:15:16;;;;;;;28.90;17.17;;;-0.90;99.90;;;;;;5050877;28;20024;-78
2021/03/10 03:17:43;;;;;;;28.88;16.55;;;-0.80;99.90;;;;;;5034033;28;20037;-78
2021/03/10 03:20:10;;;;;;;36.33;16.40;;;-0.80;99.90;;;;;;5033851;28;20025;-78
2021/03/10 03:22:42;;;;;;;35.80;17.42;;;-0.70;99.90;;;;;;5051806;28;20033;-79
2021/03/10 03:25:12;;;;;;;34.30;16.20;;;-0.70;99.90;;;;;;5032871;28;20370;-79
2021/03/10 03:27:38;;;;;;;28.52;18.77;;;-0.70;99.90;;;;;;5014008;28;20032;-79
2021/03/10 03:30:04;;;;;;;28.20;15.63;;;-0.60;99.90;;;;;;5050146;28;20032;-79
2021/03/10 03:32:33;;;;;;;29.83;16.85;;;-0.60;99.90;;;;;;5033999;28;20120;-78
2021/03/10 03:34:59;;;;;;;30.15;17.15;;;-0.60;99.90;;;;;;5032940;28;20086;-79
2021/03/10 03:37:25;;;;;;;28.75;15.88;;;-0.60;99.90;;;;;;5033590;28;20120;-79
2021/03/10 03:39:52;;;;;;;30.60;17.48;;;-0.60;99.90;;;;;;5051621;28;20029;-78
2021/03/10 03:42:18;;;;;;;26.98;17.92;;;-0.50;99.90;;;;;;5051597;28;20108;-78
2021/03/10 03:44:44;;;;;;;29.80;17.60;;;-0.50;99.90;;;;;;5032570;28;20025;-79
2021/03/10 03:47:13;;;;;;;30.25;17.52;;;-0.60;99.90;;;;;;5033805;28;20021;-79
2021/03/10 03:49:43;;;;;;;31.05;17.38;;;-0.60;99.90;;;;;;5051282;28;20041;-78
2021/03/10 03:52:08;;;;;;;23.80;15.40;;;-0.80;99.90;;;;;;5051357;28;20087;-79
2021/03/10 03:54:34;;;;;;;32.33;16.95;;;-0.90;99.90;;;;;;5032660;28;20099;-79
2021/03/10 03:57:00;;;;;;;34.20;17.15;;;-1.10;99.90;;;;;;5051491;28;20098;-79
2021/03/10 03:59:26;;;;;;;24.80;15.25;;;-1.20;99.90;;;;;;5051188;28;20076;-78
2021/03/10 04:01:51;;;;;;;30.27;17.83;;;-1.30;99.90;;;;;;5033533;28;20021;-78
2021/03/10 04:04:17;;;;;;;36.17;18.42;;;-1.40;99.90;;;;;;5050549;28;20083;-79
2021/03/10 04:06:49;;;;;;;34.45;18.75;;;-1.50;99.90;;;;;;5033515;28;20032;-78
2021/03/10 04:09:15;;;;;;;30.65;18.42;;;-1.50;99.90;;;;;;5033371;28;20508;-79
2021/03/10 04:11:45;;;;;;;32.67;18.13;;;-1.60;99.90;;;;;;5051249;28;20068;-79
2021/03/10 04:14:11;;;;;;;31.35;18.88;;;-1.60;99.90;;;;;;5050025;28;20029;-79
2021/03/10 04:16:37;;;;;;;34.80;18.48;;;-1.70;99.90;;;;;;5051004;28;20385;-79
2021/03/10 04:19:04;;;;;;;32.63;19.90;;;-1.80;99.90;;;;;;5051198;28;20104;-78
2021/03/10 04:21:29;;;;;;;37.15;19.38;;;-1.80;99.90;;;;;;5051047;28;20025;-78
2021/03/10 04:23:55;;;;;;;38.20;20.40;;;-1.80;99.90;;;;;;5032374;28;20843;-78
2021/03/10 04:26:20;;;;;;;40.55;21.67;;;-1.80;99.90;;;;;;5051124;28;20040;-78
2021/03/10 04:28:46;;;;;;;38.53;21.60;;;-1.70;99.90;;;;;;5033077;28;20024;-78
2021/03/10 04:31:11;;;;;;;35.67;21.27;;;-1.70;99.90;;;;;;5033340;28;20033;-78
2021/03/10 04:33:37;;;;;;;43.30;22.50;;;-1.70;99.90;;;;;;5032953;28;20029;-78
2021/03/10 04:36:03;;;;;;;31.10;19.20;;;-1.70;99.90;;;;;;5032792;28;20131;-77
2021/03/10 04:38:29;;;;;;;43.53;20.35;;;-1.80;99.90;;;;;;5050836;28;20055;-78
2021/03/10 04:40:54;;;;;;;39.97;20.17;;;-1.80;99.90;;;;;;5033015;28;20078;-78
2021/03/10 04:43:20;;;;;;;45.60;22.50;;;-1.80;99.90;;;;;;5050609;28;20025;-78
2021/03/10 04:45:46;;;;;;;41.05;20.25;;;-1.70;99.90;;;;;;5050377;28;20040;-78
2021/03/10 04:48:11;;;;;;;43.35;20.63;;;-1.60;99.90;;;;;;5050999;28;20434;-78
2021/03/10 04:50:37;;;;;;;40.78;22.42;;;-1.60;99.90;;;;;;5050823;28;20029;-78
2021/03/10 04:53:02;;;;;;;40.40;22.13;;;-1.60;99.90;;;;;;5051000;28;20036;-78
2021/03/10 04:55:28;;;;;;;46.63;22.13;;;-1.50;99.90;;;;;;5032095;28;20087;-78
2021/03/10 04:57:53;;;;;;;45.92;21.55;;;-1.50;99.90;;;;;;5032900;28;20025;-78
2021/03/10 05:00:20;;;;;;;37.75;20.88;;;-1.50;99.90;;;;;;5050716;28;20025;-78
2021/03/10 05:02:45;;;;;;;50.15;23.60;;;-1.50;99.90;;;;;;5032544;28;20074;-78
2021/03/10 05:05:12;;;;;;;44.65;22.83;;;-1.50;99.90;;;;;;5032684;28;20386;-78
2021/03/10 05:07:37;;;;;;;45.75;22.15;;;-1.60;99.90;;;;;;5054513;28;20031;-78
2021/03/10 05:10:05;;;;;;;49.92;22.58;;;-1.70;99.90;;;;;;5054384;28;20033;-78
2021/03/10 05:12:30;;;;;;;36.97;19.10;;;-1.70;99.90;;;;;;5036607;28;20485;-78
2021/03/10 05:14:57;;;;;;;41.30;21.08;;;-1.70;99.90;;;;;;5035377;28;20033;-78
2021/03/10 05:17:25;;;;;;;39.33;20.60;;;-1.80;99.90;;;;;;5054369;28;20025;-78
2021/03/10 05:19:51;;;;;;;40.83;21.85;;;-1.90;99.90;;;;;;5054366;28;20370;-78
2021/03/10 05:22:16;;;;;;;45.22;20.02;;;-1.90;99.90;;;;;;5054401;28;20473;-78
2021/03/10 05:24:42;;;;;;;39.22;20.92;;;-2.00;99.90;;;;;;5052959;28;20044;-78
2021/03/10 05:27:08;;;;;;;41.92;20.73;;;-2.00;99.90;;;;;;5054329;28;20061;-78
2021/03/10 05:29:33;;;;;;;36.00;18.58;;;-2.10;99.90;;;;;;5053790;28;20033;-78
2021/03/10 05:31:59;;;;;;;33.75;17.58;;;-2.10;99.90;;;;;;5054150;28;20479;-78
2021/03/10 05:34:24;;;;;;;32.33;19.45;;;-2.20;99.90;;;;;;5053153;28;20074;-78
2021/03/10 05:36:50;;;;;;;30.88;18.52;;;-2.20;99.90;;;;;;5053688;28;20036;-78
2021/03/10 05:39:16;;;;;;;38.17;19.38;;;-2.30;99.90;;;;;;5053916;28;20544;-78
2021/03/10 05:41:42;;;;;;;40.35;18.92;;;-2.30;99.90;;;;;;5035978;28;20025;-78
2021/03/10 05:44:08;;;;;;;44.83;19.67;;;-2.30;99.90;;;;;;5052772;28;20119;-78
2021/03/10 05:46:34;;;;;;;34.30;19.23;;;-2.30;99.90;;;;;;5035907;28;20021;-78
2021/03/10 05:49:00;;;;;;;40.10;20.38;;;-2.30;99.90;;;;;;5053699;28;20025;-78
2021/03/10 05:51:25;;;;;;;37.63;19.67;;;-2.30;99.90;;;;;;5053718;28;20074;-77
2021/03/10 05:53:52;;;;;;;35.00;19.98;;;-2.20;99.90;;;;;;5052620;28;20021;-78
2021/03/10 05:56:18;;;;;;;36.65;20.00;;;-2.20;99.90;;;;;;5053339;28;20535;-77
2021/03/10 05:59:03;;;;;;;33.15;18.60;;;-2.20;99.90;;;;;;5053194;28;20032;-77
2021/03/10 06:01:28;;;;;;;36.20;18.67;;;-2.20;99.90;;;;;;5053503;28;20021;-78
2021/03/10 06:03:56;;;;;;;37.97;19.88;;;-2.20;99.90;;;;;;5052330;28;20374;-77
2021/03/10 06:06:22;;;;;;;41.60;19.05;;;-2.10;99.90;;;;;;5035407;28;20025;-78
2021/03/10 06:08:48;;;;;;;41.05;18.77;;;-2.10;99.90;;;;;;5053406;28;20060;-78
2021/03/10 06:11:26;;;;;;;42.95;20.00;;;-2.00;99.90;;;;;;5053393;28;20052;-78
2021/03/10 06:13:54;;;;;;;38.80;19.73;;;-1.90;99.90;;;;;;5034620;28;20029;-78
2021/03/10 06:16:21;;;;;;;36.00;19.08;;;-1.80;99.90;;;;;;5053175;28;20029;-78
2021/03/10 06:18:47;;;;;;;44.05;20.85;;;-1.70;99.90;;;;;;5034444;28;20129;-78
2021/03/10 06:21:17;;;;;;;36.03;21.27;;;-1.70;99.90;;;;;;5034926;28;20665;-78
2021/03/10 06:23:55;;;;;;;41.95;19.48;;;-1.60;99.90;;;;;;5034177;28;20397;-78
2021/03/10 06:26:23;;;;;;;46.72;20.42;;;-1.50;99.90;;;;;;5053126;28;20022;-78
2021/03/10 06:28:50;;;;;;;42.42;21.95;;;-1.50;99.90;;;;;;5052419;28;20029;-78
2021/03/10 06:31:19;;;;;;;36.50;20.10;;;-1.40;99.90;;;;;;5034710;28;20099;-78
2021/03/10 06:34:01;;;;;;;46.10;21.55;;;-1.30;99.90;;;;;;5052284;28;20029;-78
2021/03/10 06:36:28;;;;;;;41.85;20.75;;;-1.30;99.90;;;;;;5035048;28;20108;-78
2021/03/10 06:38:53;;;;;;;37.05;20.42;;;-1.30;99.90;;;;;;5052443;28;20032;-78
2021/03/10 06:41:33;;;;;;;46.20;22.73;;;-1.20;99.90;;;;;;5052665;28;20412;-79
2021/03/10 06:43:59;;;;;;;44.20;21.95;;;-1.10;99.90;;;;;;5051765;28;20087;-78
2021/03/10 06:46:25;;;;;;;43.08;19.75;;;-1.10;99.90;;;;;;5052699;28;20053;-78
2021/03/10 06:49:03;;;;;;;44.70;19.90;;;-1.00;99.90;;;;;;5051955;28;20102;-78
2021/03/10 06:51:31;;;;;;;35.70;21.00;;;-0.90;99.90;;;;;;5052686;28;20021;-78
2021/03/10 06:53:57;;;;;;;33.88;19.15;;;-0.80;99.90;;;;;;5033994;28;20370;-78
2021/03/10 06:56:26;;;;;;;39.10;20.17;;;-0.80;99.90;;;;;;5052389;28;20108;-79
2021/03/10 06:58:56;;;;;;;35.70;18.27;;;-0.70;99.90;;;;;;5046732;28;20440;-77
2021/03/10 07:01:25;;;;;;;39.42;19.52;;;-0.60;99.90;;;;;;5051280;28;20259;-77
2021/03/10 07:03:53;;;;;;;38.15;19.40;;;-0.60;99.90;;;;;;5049386;28;20079;-77
2021/03/10 07:06:19;;;;;;;35.63;19.67;;;-0.60;99.90;;;;;;5028676;28;20122;-77
2021/03/10 07:08:45;;;;;;;38.78;18.95;;;-0.50;99.90;;;;;;5046552;28;20095;-78
2021/03/10 07:11:14;;;;;;;38.30;20.63;;;-0.40;99.90;;;;;;5033716;28;20056;-77
2021/03/10 07:13:40;;;;;;;44.90;21.60;;;-0.40;99.90;;;;;;5029799;28;20675;-77
2021/03/10 07:16:06;;;;;;;38.22;18.75;;;-0.30;99.90;;;;;;5049412;28;20025;-77
2021/03/10 07:18:33;;;;;;;35.80;19.88;;;-0.20;99.90;;;;;;5049992;28;20037;-78
2021/03/10 07:21:01;;;;;;;43.00;19.40;;;-0.20;99.90;;;;;;5027640;28;20029;-77
2021/03/10 07:23:28;;;;;;;36.15;20.80;;;-0.10;99.90;;;;;;5028313;28;20025;-77
2021/03/10 07:25:55;;;;;;;35.20;19.83;;;0.00;99.90;;;;;;5032322;28;20025;-77
2021/03/10 07:28:30;;;;;;;41.47;19.85;;;0.00;99.90;;;;;;5050451;28;20051;-77
2021/03/10 07:30:56;;;;;;;36.30;20.33;;;0.00;99.90;;;;;;5033323;28;20389;-77
2021/03/10 07:33:23;;;;;;;31.33;18.30;;;0.10;99.90;;;;;;5028347;28;20079;-76
2021/03/10 07:35:49;;;;;;;41.85;19.75;;;0.10;99.90;;;;;;5012619;28;20516;-77
2021/03/10 07:38:15;;;;;;;40.58;20.75;;;0.10;99.90;;;;;;5014236;28;20029;-76
2021/03/10 07:40:54;;;;;;;34.15;19.17;;;0.20;99.90;;;;;;5033087;28;20039;-77
2021/03/10 07:43:20;;;;;;;41.38;21.40;;;0.20;99.90;;;;;;5050572;28;20049;-77
2021/03/10 07:45:46;;;;;;;42.63;20.77;;;0.30;99.90;;;;;;5049233;28;20094;-76
2021/03/10 07:48:12;;;;;;;38.28;20.67;;;0.40;99.90;;;;;;5033417;28;20174;-77
2021/03/10 07:50:42;;;;;;;38.55;20.63;;;0.40;99.90;;;;;;5050691;28;20444;-77
2021/03/10 07:53:08;;;;;;;36.10;20.77;;;0.50;99.90;;;;;;5033999;28;20500;-78
2021/03/10 07:55:48;;;;;;;46.95;22.90;;;0.60;99.90;;;;;;5050834;28;20105;-77
2021/03/10 07:58:26;;;;;;;44.95;21.33;;;0.70;99.90;;;;;;5051264;28;20029;-79
2021/03/10 08:00:51;;;;;;;46.95;22.50;;;0.70;99.90;;;;;;5031645;28;20040;-78
2021/03/10 08:03:31;;;;;;;45.38;23.65;;;0.80;99.90;;;;;;5051053;28;20033;-78
2021/03/10 08:06:05;;;;;;;46.78;22.50;;;0.80;99.90;;;;;;5050536;28;20071;-78
2021/03/10 08:08:43;;;;;;;43.33;22.60;;;0.90;99.90;;;;;;5032709;28;20147;-77
2021/03/10 08:11:14;;;;;;;44.50;24.25;;;1.00;99.90;;;;;;5051313;28;20063;-77
2021/03/10 08:13:41;;;;;;;41.25;21.40;;;1.00;99.90;;;;;;5050568;28;20025;-78
2021/03/10 08:16:08;;;;;;;43.22;22.75;;;1.10;99.90;;;;;;5050891;28;20067;-78
2021/03/10 08:18:36;;;;;;;47.95;22.67;;;1.20;99.90;;;;;;5033061;28;20025;-77
2021/03/10 08:21:09;;;;;;;43.70;22.75;;;1.20;99.90;;;;;;5031184;28;20432;-77
2021/03/10 08:23:35;;;;;;;41.50;22.13;;;1.20;99.90;;;;;;5013422;28;20109;-78
2021/03/10 08:26:04;;;;;;;38.35;21.45;;;1.20;99.90;;;;;;5040732;28;20025;-78
2021/03/10 08:28:37;;;;;;;41.75;22.02;;;1.20;99.90;;;;;;5044088;28;20029;-78
2021/03/10 08:31:09;;;;;;;38.50;20.60;;;1.20;99.90;;;;;;5042819;28;20025;-76
2021/03/10 08:33:49;;;;;;;40.15;22.25;;;1.20;99.90;;;;;;5050588;28;20061;-77
2021/03/10 08:36:15;;;;;;;47.33;22.98;;;1.30;99.90;;;;;;5050935;28;20028;-77
2021/03/10 08:38:42;;;;;;;45.35;22.52;;;1.30;99.90;;;;;;5050947;28;20032;-77
2021/03/10 08:41:08;;;;;;;49.22;23.77;;;1.40;99.90;;;;;;5052559;28;20393;-78
2021/03/10 08:43:34;;;;;;;44.83;23.13;;;1.50;99.90;;;;;;5036854;28;20025;-77
2021/03/10 08:46:00;;;;;;;46.85;25.52;;;1.60;99.90;;;;;;5036200;28;20021;-77
2021/03/10 08:48:34;;;;;;;46.30;24.27;;;1.70;99.90;;;;;;5036798;28;20032;-76
2021/03/10 08:51:02;;;;;;;55.80;25.95;;;1.90;99.90;;;;;;5053266;28;20055;-77
2021/03/10 08:53:27;;;;;;;46.83;24.80;;;1.90;99.90;;;;;;5050866;28;20096;-76
2021/03/10 08:56:04;;;;;;;49.20;25.92;;;2.10;99.90;;;;;;5054024;28;20167;-76
2021/03/10 08:58:29;;;;;;;47.65;24.45;;;2.20;99.90;;;;;;5054599;28;20025;-76
2021/03/10 09:00:55;;;;;;;51.70;26.92;;;2.30;99.90;;;;;;5036419;28;20029;-77
2021/03/10 09:03:20;;;;;;;48.90;26.23;;;2.50;99.90;;;;;;5054518;28;20029;-77
2021/03/10 09:05:51;;;;;;;53.72;26.75;;;2.60;99.90;;;;;;5053717;28;20496;-77
2021/03/10 09:08:22;;;;;;;45.55;25.17;;;2.50;99.90;;;;;;5054803;28;20025;-77
2021/03/10 09:10:51;;;;;;;52.85;27.95;;;2.60;99.90;;;;;;5054144;28;20040;-77
2021/03/10 09:13:21;;;;;;;50.58;25.50;;;2.70;99.90;;;;;;5054406;28;20028;-77
2021/03/10 09:15:47;;;;;;;56.90;26.88;;;2.70;99.90;;;;;;5033909;28;20378;-77
2021/03/10 09:18:13;;;;;;;51.25;28.90;;;2.80;99.90;;;;;;5072502;28;20031;-77
2021/03/10 09:20:41;;;;;;;58.17;30.13;;;2.80;99.90;;;;;;5074052;28;20032;-77
2021/03/10 09:23:07;;;;;;;56.45;27.33;;;2.80;99.90;;;;;;5074187;28;20025;-77
2021/03/10 09:25:35;;;;;;;60.72;29.27;;;2.90;99.90;;;;;;5073428;28;20032;-76
2021/03/10 09:28:14;;;;;;;58.65;30.20;;;3.00;99.90;;;;;;5074205;28;20044;-77
2021/03/10 09:30:45;;;;;;;68.25;30.65;;;2.90;99.90;;;;;;5040391;28;20021;-76
2021/03/10 09:33:25;;;;;;;68.88;30.63;;;3.00;99.90;;;;;;5053985;28;20029;-77
2021/03/10 09:35:54;;;;;;;55.40;30.65;;;3.10;99.90;;;;;;5052417;28;20025;-77
2021/03/10 09:38:21;;;;;;;64.47;33.35;;;3.20;99.90;;;;;;5053129;28;20090;-77
2021/03/10 09:40:55;;;;;;;54.90;28.98;;;3.20;99.90;;;;;;5035850;28;20039;-77
2021/03/10 09:43:22;;;;;;;50.05;28.42;;;3.30;99.90;;;;;;5053888;28;20028;-76
2021/03/10 09:45:49;;;;;;;52.47;27.15;;;3.50;99.90;;;;;;5034850;28;20021;-77
2021/03/10 09:48:28;;;;;;;54.25;28.77;;;3.50;99.90;;;;;;5053773;28;20037;-77
2021/03/10 09:51:05;;;;;;;57.15;30.92;;;3.70;99.90;;;;;;5053413;28;20029;-77
2021/03/10 09:53:31;;;;;;;57.03;29.73;;;3.70;99.90;;;;;;5035662;28;20051;-77
2021/03/10 09:56:04;;;;;;;63.78;31.02;;;3.70;99.90;;;;;;5052871;28;20493;-77
2021/03/10 09:58:30;;;;;;;60.35;30.83;;;3.70;99.90;;;;;;5053409;28;20401;-77
2021/03/10 10:01:00;;;;;;;67.03;31.60;;;3.80;99.90;;;;;;5053289;28;20040;-77
2021/03/10 10:03:26;;;;;;;53.42;28.75;;;3.80;99.90;;;;;;5053547;28;20070;-77
2021/03/10 10:06:02;;;;;;;61.40;31.25;;;4.00;99.90;;;;;;5034188;28;20017;-77
2021/03/10 10:08:27;;;;;;;77.70;32.20;;;4.30;99.90;;;;;;5053525;28;20017;-76
2021/03/10 10:10:53;;;;;;;117.97;31.77;;;4.40;99.90;;;;;;5053006;28;20102;-77
2021/03/10 10:13:18;;;;;;;177.85;36.33;;;4.50;99.90;;;;;;5052707;28;20502;-77
2021/03/10 10:15:44;;;;;;;60.25;31.48;;;4.60;99.90;;;;;;5052119;28;20040;-78
2021/03/10 10:18:09;;;;;;;61.78;32.35;;;4.60;99.90;;;;;;5053016;28;20041;-78
2021/03/10 10:20:35;;;;;;;67.78;29.27;;;4.60;99.90;;;;;;5034504;28;20089;-76
2021/03/10 10:23:03;;;;;;;63.97;30.88;;;4.60;99.90;;;;;;5053163;28;20032;-77
2021/03/10 10:25:28;;;;;;;58.42;30.92;;;4.80;99.90;;;;;;5034492;28;20036;-79
2021/03/10 10:27:54;;;;;;;59.78;30.23;;;4.70;99.90;;;;;;5052813;28;20025;-76
2021/03/10 10:30:20;;;;;;;60.75;29.65;;;4.70;99.90;;;;;;5035062;28;20052;-76
2021/03/10 10:32:50;;;;;;;56.03;29.10;;;4.70;99.90;;;;;;5052650;28;20124;-77
2021/03/10 10:35:17;;;;;;;54.53;28.95;;;4.70;99.90;;;;;;5050847;28;20096;-77
2021/03/10 10:37:43;;;;;;;53.90;28.80;;;4.80;99.90;;;;;;5052357;28;20440;-76
2021/03/10 10:40:11;;;;;;;53.97;28.77;;;5.00;99.90;;;;;;5052591;28;20033;-77
2021/03/10 10:42:37;;;;;;;54.08;29.00;;;5.20;99.90;;;;;;5052611;28;20029;-78
2021/03/10 10:45:05;;;;;;;56.08;29.20;;;5.20;99.90;;;;;;5051715;28;20081;-77
2021/03/10 10:47:32;;;;;;;61.13;29.17;;;5.20;99.90;;;;;;5031931;28;20044;-77
2021/03/10 10:49:57;;;;;;;47.70;26.50;;;5.20;99.90;;;;;;5053096;28;20409;-76
2021/03/10 10:52:23;;;;;;;49.90;26.88;;;5.20;99.90;;;;;;5051406;28;20044;-76
2021/03/10 10:54:48;;;;;;;54.15;28.42;;;5.10;99.90;;;;;;5051772;28;20068;-76
2021/03/10 10:57:14;;;;;;;47.92;25.23;;;5.30;99.90;;;;;;5034570;28;20080;-77
2021/03/10 10:59:40;;;;;;;48.53;27.15;;;5.40;99.90;;;;;;5034344;28;20084;-76
2021/03/10 11:02:06;;;;;;;52.95;28.75;;;5.30;99.90;;;;;;5051540;28;20032;-76
2021/03/10 11:04:32;;;;;;;47.72;26.95;;;5.40;99.90;;;;;;5032547;28;20029;-76
2021/03/10 11:06:57;;;;;;;60.67;28.05;;;5.30;99.90;;;;;;5051839;28;20040;-77
2021/03/10 11:09:23;;;;;;;51.60;30.75;;;5.30;99.90;;;;;;5052104;28;20032;-77
2021/03/10 11:11:49;;;;;;;53.42;29.38;;;5.40;99.90;;;;;;5051893;28;20031;-76
2021/03/10 11:14:15;;;;;;;67.40;31.33;;;5.40;99.90;;;;;;5067037;28;20484;-77
2021/03/10 11:16:40;;;;;;;63.05;32.03;;;5.50;99.90;;;;;;5043940;28;20033;-80
2021/03/10 11:19:06;;;;;;;55.70;31.25;;;5.50;99.90;;;;;;5033858;28;20036;-76
2021/03/10 11:21:32;;;;;;;57.92;30.88;;;5.60;99.90;;;;;;5033582;28;20040;-76
2021/03/10 11:23:57;;;;;;;52.15;29.85;;;5.80;99.90;;;;;;5032694;28;20070;-77
2021/03/10 11:26:22;;;;;;;49.63;28.35;;;6.20;99.90;;;;;;5033000;28;20116;-77
2021/03/10 11:28:48;;;;;;;50.33;28.13;;;6.40;99.90;;;;;;5033885;28;20481;-76
2021/03/10 11:31:14;;;;;;;55.20;29.42;;;6.30;99.90;;;;;;5051348;28;20025;-76
2021/03/10 11:33:39;;;;;;;57.17;29.58;;;6.30;99.90;;;;;;5050233;28;20473;-76
2021/03/10 11:36:07;;;;;;;50.20;28.13;;;6.40;99.90;;;;;;5050744;28;20021;-75
2021/03/10 11:38:33;;;;;;;50.40;28.10;;;6.40;99.90;;;;;;5033605;28;20071;-75
2021/03/10 11:40:58;;;;;;;54.03;29.27;;;6.40;99.90;;;;;;5051730;28;20075;-76
2021/03/10 11:43:24;;;;;;;52.45;27.67;;;6.60;99.90;;;;;;5033365;28;20025;-76
2021/03/10 11:45:49;;;;;;;47.63;25.48;;;6.70;99.90;;;;;;5049554;28;20111;-76
2021/03/10 11:48:15;;;;;;;50.75;27.48;;;6.80;99.90;;;;;;5051571;28;20028;-75
2021/03/10 11:50:41;;;;;;;50.90;27.17;;;6.80;99.90;;;;;;5050721;28;20444;-76
2021/03/10 11:53:08;;;;;;;58.97;28.77;;;6.90;99.90;;;;;;5032352;28;20025;-76
2021/03/10 11:55:33;;;;;;;42.03;25.55;;;6.80;99.90;;;;;;5050801;28;20107;-78
2021/03/10 11:58:00;;;;;;;49.88;28.15;;;6.80;99.90;;;;;;5051439;28;20449;-76
2021/03/10 12:00:26;;;;;;;50.20;28.17;;;6.80;99.90;;;;;;5049786;28;20436;-77
2021/03/10 12:02:52;;;;;;;51.60;28.95;;;6.80;99.90;;;;;;5031930;28;20086;-77
2021/03/10 12:05:18;;;;;;;45.97;26.73;;;6.80;99.90;;;;;;5050833;28;20108;-77
2021/03/10 12:07:43;;;;;;;46.75;27.33;;;6.80;99.90;;;;;;5051157;28;20471;-77
2021/03/10 12:10:10;;;;;;;51.92;27.92;;;6.90;99.90;;;;;;5051167;28;20124;-77
2021/03/10 12:12:35;;;;;;;52.72;28.08;;;6.80;99.90;;;;;;5051226;28;20029;-78
2021/03/10 12:15:01;;;;;;;50.83;27.67;;;6.90;99.90;;;;;;5050210;28;20784;-78
2021/03/10 12:17:26;;;;;;;47.30;26.42;;;6.90;99.90;;;;;;5055510;28;20029;-78
2021/03/10 12:19:52;;;;;;;48.33;27.67;;;6.80;99.90;;;;;;5055216;28;20021;-78
2021/03/10 12:22:17;;;;;;;52.90;27.45;;;6.80;99.90;;;;;;5037544;28;20489;-78
2021/03/10 12:24:45;;;;;;;48.88;27.50;;;6.70;99.90;;;;;;5036612;28;20025;-77
2021/03/10 12:27:11;;;;;;;54.00;29.73;;;6.80;99.90;;;;;;5055384;28;20021;-77
2021/03/10 12:29:36;;;;;;;47.75;27.55;;;6.70;99.90;;;;;;5055024;28;20086;-77
2021/03/10 12:32:02;;;;;;;48.50;26.98;;;6.70;99.90;;;;;;5054839;28;20036;-76
2021/03/10 12:34:28;;;;;;;47.88;28.00;;;6.70;99.90;;;;;;5054537;28;20029;-77